sensor_id;sensor_type;location;lat;lon;timestamp;temperature;humidity
15107;DHT22;7654;45.308;-75.096;2024-03-23T00:54:04;-4.50;91.30
15107;DHT22;7654;45.308;-75.096;2024-03-23T00:56:32;-4.50;91.20
15107;DHT22;7654;45.308;-75.096;2024-03-23T00:59:02;-4.50;91.30
15107;DHT22;7654;45.308;-75.096;2024-03-23T01:01:30;-4.50;91.50
15107;DHT22;7654;45.308;-75.096;2024-03-23T01:03:59;-4.40;91.80
15107;DHT22;7654;45.308;-75.096;2024-03-23T01:06:27;-4.50;91.80
15107;DHT22;7654;45.308;-75.096;2024-03-23T01:08:56;-4.50;92.00
15107;DHT22;7654;45.308;-75.096;2024-03-23T01:11:24;-4.50;92.40
15107;DHT22;7654;45.308;-75.096;2024-03-23T01:13:54;-4.50;92.60
15107;DHT22;7654;45.308;-75.096;2024-03-23T01:16:24;-4.50;92.60
15107;DHT22;7654;45.308;-75.096;2024-03-23T01:18:53;-4.50;92.70
15107;DHT22;7654;45.308;-75.096;2024-03-23T01:21:21;-4.40;93.00
15107;DHT22;7654;45.308;-75.096;2024-03-23T01:23:50;-4.40;93.70
15107;DHT22;7654;45.308;-75.096;2024-03-23T01:26:17;-4.40;93.60
15107;DHT22;7654;45.308;-75.096;2024-03-23T01:28:48;-4.40;93.90
15107;DHT22;7654;45.308;-75.096;2024-03-23T01:31:16;-4.40;93.90
15107;DHT22;7654;45.308;-75.096;2024-03-23T01:33:46;-4.40;93.90
15107;DHT22;7654;45.308;-75.096;2024-03-23T01:36:14;-4.40;93.80
15107;DHT22;7654;45.308;-75.096;2024-03-23T01:38:43;-4.30;93.80
15107;DHT22;7654;45.308;-75.096;2024-03-23T01:41:11;-4.30;93.70
15107;DHT22;7654;45.308;-75.096;2024-03-23T01:43:40;-4.30;93.70
15107;DHT22;7654;45.308;-75.096;2024-03-23T01:46:08;-4.30;93.90
15107;DHT22;7654;45.308;-75.096;2024-03-23T01:48:38;-4.30;93.80
15107;DHT22;7654;45.308;-75.096;2024-03-23T01:51:08;-4.30;94.10
15107;DHT22;7654;45.308;-75.096;2024-03-23T01:53:38;-4.30;93.60
15107;DHT22;7654;45.308;-75.096;2024-03-23T01:56:06;-4.20;93.40
15107;DHT22;7654;45.308;-75.096;2024-03-23T01:58:34;-4.20;93.50
15107;DHT22;7654;45.308;-75.096;2024-03-23T02:01:03;-4.20;93.70
15107;DHT22;7654;45.308;-75.096;2024-03-23T02:03:32;-4.30;94.00
15107;DHT22;7654;45.308;-75.096;2024-03-23T02:05:59;-4.20;93.80
15107;DHT22;7654;45.308;-75.096;2024-03-23T02:08:30;-4.30;93.30
15107;DHT22;7654;45.308;-75.096;2024-03-23T02:10:58;-4.30;93.30
15107;DHT22;7654;45.308;-75.096;2024-03-23T02:13:27;-4.40;93.40
15107;DHT22;7654;45.308;-75.096;2024-03-23T02:15:55;-4.40;93.30
15107;DHT22;7654;45.308;-75.096;2024-03-23T02:18:24;-4.50;93.60
15107;DHT22;7654;45.308;-75.096;2024-03-23T02:20:52;-4.50;93.30
15107;DHT22;7654;45.308;-75.096;2024-03-23T02:23:23;-4.50;93.00
15107;DHT22;7654;45.308;-75.096;2024-03-23T02:25:52;-4.60;93.10
15107;DHT22;7654;45.308;-75.096;2024-03-23T02:28:23;-4.60;93.10
15107;DHT22;7654;45.308;-75.096;2024-03-23T02:30:51;-4.60;93.20
15107;DHT22;7654;45.308;-75.096;2024-03-23T02:33:20;-4.70;93.00
15107;DHT22;7654;45.308;-75.096;2024-03-23T02:35:48;-4.70;93.60
15107;DHT22;7654;45.308;-75.096;2024-03-23T02:38:17;-4.70;93.80
15107;DHT22;7654;45.308;-75.096;2024-03-23T02:40:46;-4.70;94.20
15107;DHT22;7654;45.308;-75.096;2024-03-23T02:43:15;-4.80;94.40
15107;DHT22;7654;45.308;-75.096;2024-03-23T02:45:43;-4.80;94.50
15107;DHT22;7654;45.308;-75.096;2024-03-23T02:48:13;-4.80;94.70
15107;DHT22;7654;45.308;-75.096;2024-03-23T02:50:41;-4.90;94.70
15107;DHT22;7654;45.308;-75.096;2024-03-23T02:53:10;-4.90;95.00
15107;DHT22;7654;45.308;-75.096;2024-03-23T02:55:38;-4.90;95.00
15107;DHT22;7654;45.308;-75.096;2024-03-23T02:58:08;-4.90;95.10
15107;DHT22;7654;45.308;-75.096;2024-03-23T03:00:36;-4.80;95.30
15107;DHT22;7654;45.308;-75.096;2024-03-23T03:03:05;-4.80;95.40
15107;DHT22;7654;45.308;-75.096;2024-03-23T03:05:34;-4.80;95.60
15107;DHT22;7654;45.308;-75.096;2024-03-23T03:08:02;-4.80;95.50
15107;DHT22;7654;45.308;-75.096;2024-03-23T03:10:30;-4.80;95.40
15107;DHT22;7654;45.308;-75.096;2024-03-23T03:13:01;-4.80;95.50
15107;DHT22;7654;45.308;-75.096;2024-03-23T03:15:31;-4.80;95.80
15107;DHT22;7654;45.308;-75.096;2024-03-23T03:18:00;-4.70;95.30
15107;DHT22;7654;45.308;-75.096;2024-03-23T03:20:27;-4.70;95.40
15107;DHT22;7654;45.308;-75.096;2024-03-23T03:23:05;-4.70;95.00
15107;DHT22;7654;45.308;-75.096;2024-03-23T03:25:33;-4.60;95.20
15107;DHT22;7654;45.308;-75.096;2024-03-23T03:28:12;-4.60;95.20
15107;DHT22;7654;45.308;-75.096;2024-03-23T03:30:41;-4.50;95.10
15107;DHT22;7654;45.308;-75.096;2024-03-23T03:33:10;-4.50;95.20
15107;DHT22;7654;45.308;-75.096;2024-03-23T03:35:37;-4.40;95.40
15107;DHT22;7654;45.308;-75.096;2024-03-23T03:38:06;-4.40;95.40
15107;DHT22;7654;45.308;-75.096;2024-03-23T03:40:34;-4.40;95.50
15107;DHT22;7654;45.308;-75.096;2024-03-23T03:43:02;-4.40;95.50
15107;DHT22;7654;45.308;-75.096;2024-03-23T03:45:30;-4.40;95.30
15107;DHT22;7654;45.308;-75.096;2024-03-23T03:48:00;-4.40;95.50
15107;DHT22;7654;45.308;-75.096;2024-03-23T03:50:28;-4.40;94.30
15107;DHT22;7654;45.308;-75.096;2024-03-23T03:52:57;-4.40;94.90
15107;DHT22;7654;45.308;-75.096;2024-03-23T03:55:25;-4.40;95.30
15107;DHT22;7654;45.308;-75.096;2024-03-23T03:57:54;-4.40;95.80
15107;DHT22;7654;45.308;-75.096;2024-03-23T04:00:21;-4.40;96.00
15107;DHT22;7654;45.308;-75.096;2024-03-23T04:02:51;-4.30;96.00
15107;DHT22;7654;45.308;-75.096;2024-03-23T04:05:20;-4.30;96.10
15107;DHT22;7654;45.308;-75.096;2024-03-23T04:07:49;-4.30;95.30
15107;DHT22;7654;45.308;-75.096;2024-03-23T04:10:18;-4.30;95.20
15107;DHT22;7654;45.308;-75.096;2024-03-23T04:12:46;-4.30;95.30
15107;DHT22;7654;45.308;-75.096;2024-03-23T04:15:15;-4.30;95.60
15107;DHT22;7654;45.308;-75.096;2024-03-23T04:17:43;-4.30;95.40
15107;DHT22;7654;45.308;-75.096;2024-03-23T04:20:12;-4.30;95.40
15107;DHT22;7654;45.308;-75.096;2024-03-23T04:22:45;-4.30;95.60
15107;DHT22;7654;45.308;-75.096;2024-03-23T04:25:14;-4.30;95.80
15107;DHT22;7654;45.308;-75.096;2024-03-23T04:27:41;-4.30;95.70
15107;DHT22;7654;45.308;-75.096;2024-03-23T04:30:11;-4.30;95.50
15107;DHT22;7654;45.308;-75.096;2024-03-23T04:32:39;-4.20;95.50
15107;DHT22;7654;45.308;-75.096;2024-03-23T04:35:09;-4.20;95.40
15107;DHT22;7654;45.308;-75.096;2024-03-23T04:37:36;-4.20;95.70
15107;DHT22;7654;45.308;-75.096;2024-03-23T04:40:09;-4.20;95.50
15107;DHT22;7654;45.308;-75.096;2024-03-23T04:42:39;-4.20;95.80
15107;DHT22;7654;45.308;-75.096;2024-03-23T04:45:08;-4.20;95.80
15107;DHT22;7654;45.308;-75.096;2024-03-23T04:47:38;-4.20;95.90
15107;DHT22;7654;45.308;-75.096;2024-03-23T04:50:07;-4.10;96.70
15107;DHT22;7654;45.308;-75.096;2024-03-23T04:52:37;-4.10;97.10
15107;DHT22;7654;45.308;-75.096;2024-03-23T04:55:08;-4.10;97.30
15107;DHT22;7654;45.308;-75.096;2024-03-23T04:57:36;-4.10;97.00
15107;DHT22;7654;45.308;-75.096;2024-03-23T05:00:05;-4.10;97.20
15107;DHT22;7654;45.308;-75.096;2024-03-23T05:02:44;-4.10;97.30
15107;DHT22;7654;45.308;-75.096;2024-03-23T05:05:12;-4.10;97.40
15107;DHT22;7654;45.308;-75.096;2024-03-23T05:07:41;-4.10;97.50
15107;DHT22;7654;45.308;-75.096;2024-03-23T05:10:11;-4.10;97.60
15107;DHT22;7654;45.308;-75.096;2024-03-23T05:12:40;-4.10;97.70
15107;DHT22;7654;45.308;-75.096;2024-03-23T05:15:08;-4.20;97.90
15107;DHT22;7654;45.308;-75.096;2024-03-23T05:17:39;-4.20;97.50
15107;DHT22;7654;45.308;-75.096;2024-03-23T05:20:07;-4.20;97.30
15107;DHT22;7654;45.308;-75.096;2024-03-23T05:22:37;-4.10;96.50
15107;DHT22;7654;45.308;-75.096;2024-03-23T05:25:04;-4.10;96.60
15107;DHT22;7654;45.308;-75.096;2024-03-23T05:27:35;-4.20;96.40
15107;DHT22;7654;45.308;-75.096;2024-03-23T05:30:04;-4.10;96.20
15107;DHT22;7654;45.308;-75.096;2024-03-23T05:32:32;-4.10;96.30
15107;DHT22;7654;45.308;-75.096;2024-03-23T05:35:01;-4.20;95.20
15107;DHT22;7654;45.308;-75.096;2024-03-23T05:37:29;-4.20;95.40
15107;DHT22;7654;45.308;-75.096;2024-03-23T05:40:00;-4.20;95.60
15107;DHT22;7654;45.308;-75.096;2024-03-23T05:42:30;-4.20;95.70
15107;DHT22;7654;45.308;-75.096;2024-03-23T05:45:00;-4.20;95.00
15107;DHT22;7654;45.308;-75.096;2024-03-23T05:47:28;-4.20;95.00
15107;DHT22;7654;45.308;-75.096;2024-03-23T05:49:56;-4.20;94.90
15107;DHT22;7654;45.308;-75.096;2024-03-23T05:52:26;-4.30;95.00
15107;DHT22;7654;45.308;-75.096;2024-03-23T05:54:54;-4.30;95.10
15107;DHT22;7654;45.308;-75.096;2024-03-23T05:57:22;-4.30;95.60
15107;DHT22;7654;45.308;-75.096;2024-03-23T05:59:50;-4.30;96.20
15107;DHT22;7654;45.308;-75.096;2024-03-23T06:02:20;-4.40;96.40
15107;DHT22;7654;45.308;-75.096;2024-03-23T06:04:48;-4.40;97.00
15107;DHT22;7654;45.308;-75.096;2024-03-23T06:07:17;-4.40;97.50
15107;DHT22;7654;45.308;-75.096;2024-03-23T06:09:45;-4.40;97.90
15107;DHT22;7654;45.308;-75.096;2024-03-23T06:12:13;-4.50;98.00
15107;DHT22;7654;45.308;-75.096;2024-03-23T06:14:41;-4.50;98.70
15107;DHT22;7654;45.308;-75.096;2024-03-23T06:17:10;-4.50;99.00
15107;DHT22;7654;45.308;-75.096;2024-03-23T06:19:39;-4.60;99.10
15107;DHT22;7654;45.308;-75.096;2024-03-23T06:22:09;-4.60;99.90
15107;DHT22;7654;45.308;-75.096;2024-03-23T06:24:36;-4.70;99.90
15107;DHT22;7654;45.308;-75.096;2024-03-23T06:27:05;-4.70;99.90
15107;DHT22;7654;45.308;-75.096;2024-03-23T06:29:33;-4.70;99.90
15107;DHT22;7654;45.308;-75.096;2024-03-23T06:32:03;-4.70;99.90
15107;DHT22;7654;45.308;-75.096;2024-03-23T06:34:31;-4.80;99.90
15107;DHT22;7654;45.308;-75.096;2024-03-23T06:37:02;-4.80;99.90
15107;DHT22;7654;45.308;-75.096;2024-03-23T06:39:30;-4.90;99.90
15107;DHT22;7654;45.308;-75.096;2024-03-23T06:41:58;-4.90;99.90
15107;DHT22;7654;45.308;-75.096;2024-03-23T06:44:26;-5.00;99.90
15107;DHT22;7654;45.308;-75.096;2024-03-23T06:46:55;-5.00;99.90
15107;DHT22;7654;45.308;-75.096;2024-03-23T06:49:23;-5.10;99.90
15107;DHT22;7654;45.308;-75.096;2024-03-23T06:51:52;-5.10;99.90
15107;DHT22;7654;45.308;-75.096;2024-03-23T06:54:21;-5.10;99.90
15107;DHT22;7654;45.308;-75.096;2024-03-23T06:56:50;-5.10;99.90
15107;DHT22;7654;45.308;-75.096;2024-03-23T06:59:17;-5.20;99.90
15107;DHT22;7654;45.308;-75.096;2024-03-23T07:01:46;-5.20;99.90
15107;DHT22;7654;45.308;-75.096;2024-03-23T07:04:13;-5.20;99.90
15107;DHT22;7654;45.308;-75.096;2024-03-23T07:06:45;-5.20;99.90
15107;DHT22;7654;45.308;-75.096;2024-03-23T07:09:13;-5.30;99.90
15107;DHT22;7654;45.308;-75.096;2024-03-23T07:11:43;-5.30;99.90
15107;DHT22;7654;45.308;-75.096;2024-03-23T07:14:11;-5.30;99.90
15107;DHT22;7654;45.308;-75.096;2024-03-23T07:16:40;-5.30;99.90
15107;DHT22;7654;45.308;-75.096;2024-03-23T07:19:07;-5.40;99.90
15107;DHT22;7654;45.308;-75.096;2024-03-23T07:21:36;-5.40;99.90
15107;DHT22;7654;45.308;-75.096;2024-03-23T07:24:04;-5.40;99.90
15107;DHT22;7654;45.308;-75.096;2024-03-23T07:26:33;-5.50;99.90
15107;DHT22;7654;45.308;-75.096;2024-03-23T07:29:02;-5.50;99.90
15107;DHT22;7654;45.308;-75.096;2024-03-23T07:31:31;-5.50;99.90
15107;DHT22;7654;45.308;-75.096;2024-03-23T07:33:59;-5.50;99.90
15107;DHT22;7654;45.308;-75.096;2024-03-23T07:36:28;-5.50;99.90
15107;DHT22;7654;45.308;-75.096;2024-03-23T07:38:56;-5.50;99.90
15107;DHT22;7654;45.308;-75.096;2024-03-23T07:41:25;-5.50;99.90
15107;DHT22;7654;45.308;-75.096;2024-03-23T07:43:54;-5.60;99.90
15107;DHT22;7654;45.308;-75.096;2024-03-23T07:46:25;-5.60;99.90
15107;DHT22;7654;45.308;-75.096;2024-03-23T07:48:52;-5.60;99.90
15107;DHT22;7654;45.308;-75.096;2024-03-23T07:51:22;-5.60;99.90
15107;DHT22;7654;45.308;-75.096;2024-03-23T07:53:49;-5.60;99.90
15107;DHT22;7654;45.308;-75.096;2024-03-23T07:56:19;-5.70;99.90
15107;DHT22;7654;45.308;-75.096;2024-03-23T07:58:48;-5.70;99.90
15107;DHT22;7654;45.308;-75.096;2024-03-23T08:01:17;-5.70;99.90
15107;DHT22;7654;45.308;-75.096;2024-03-23T08:03:46;-5.70;99.90
15107;DHT22;7654;45.308;-75.096;2024-03-23T08:06:16;-5.70;99.90
15107;DHT22;7654;45.308;-75.096;2024-03-23T08:08:45;-5.60;99.90
15107;DHT22;7654;45.308;-75.096;2024-03-23T08:11:14;-5.60;99.90
15107;DHT22;7654;45.308;-75.096;2024-03-23T08:13:44;-5.60;99.90
15107;DHT22;7654;45.308;-75.096;2024-03-23T08:16:13;-5.70;99.90
15107;DHT22;7654;45.308;-75.096;2024-03-23T08:18:41;-5.70;99.90
15107;DHT22;7654;45.308;-75.096;2024-03-23T08:21:11;-5.70;99.90
15107;DHT22;7654;45.308;-75.096;2024-03-23T08:23:40;-5.70;99.90
15107;DHT22;7654;45.308;-75.096;2024-03-23T08:26:11;-5.70;99.90
15107;DHT22;7654;45.308;-75.096;2024-03-23T08:28:39;-5.70;99.90
15107;DHT22;7654;45.308;-75.096;2024-03-23T08:31:08;-5.70;99.90
15107;DHT22;7654;45.308;-75.096;2024-03-23T08:33:36;-5.70;99.90
15107;DHT22;7654;45.308;-75.096;2024-03-23T08:36:07;-5.70;99.90
15107;DHT22;7654;45.308;-75.096;2024-03-23T08:38:36;-5.70;99.90
15107;DHT22;7654;45.308;-75.096;2024-03-23T08:41:06;-5.70;99.90
15107;DHT22;7654;45.308;-75.096;2024-03-23T08:43:36;-5.70;99.90
15107;DHT22;7654;45.308;-75.096;2024-03-23T08:46:06;-5.70;99.90
15107;DHT22;7654;45.308;-75.096;2024-03-23T08:48:36;-5.70;99.90
15107;DHT22;7654;45.308;-75.096;2024-03-23T08:51:06;-5.70;99.90
15107;DHT22;7654;45.308;-75.096;2024-03-23T08:53:36;-5.70;99.90
15107;DHT22;7654;45.308;-75.096;2024-03-23T08:56:07;-5.70;99.90
15107;DHT22;7654;45.308;-75.096;2024-03-23T08:58:35;-5.70;99.90
15107;DHT22;7654;45.308;-75.096;2024-03-23T09:01:08;-5.70;99.90
15107;DHT22;7654;45.308;-75.096;2024-03-23T09:03:36;-5.70;99.90
15107;DHT22;7654;45.308;-75.096;2024-03-23T09:06:07;-5.60;99.90
15107;DHT22;7654;45.308;-75.096;2024-03-23T09:08:37;-5.70;99.90
15107;DHT22;7654;45.308;-75.096;2024-03-23T09:11:08;-5.70;99.90
15107;DHT22;7654;45.308;-75.096;2024-03-23T09:13:37;-5.70;99.90
15107;DHT22;7654;45.308;-75.096;2024-03-23T09:16:06;-5.70;99.90
15107;DHT22;7654;45.308;-75.096;2024-03-23T09:18:36;-5.70;99.90
15107;DHT22;7654;45.308;-75.096;2024-03-23T09:21:10;-5.70;99.90
15107;DHT22;7654;45.308;-75.096;2024-03-23T09:23:39;-5.70;99.90
15107;DHT22;7654;45.308;-75.096;2024-03-23T09:26:08;-5.70;99.90
15107;DHT22;7654;45.308;-75.096;2024-03-23T09:28:36;-5.70;99.90
15107;DHT22;7654;45.308;-75.096;2024-03-23T09:31:07;-5.70;99.90
15107;DHT22;7654;45.308;-75.096;2024-03-23T09:33:35;-5.70;99.90
15107;DHT22;7654;45.308;-75.096;2024-03-23T09:36:04;-5.70;99.90
15107;DHT22;7654;45.308;-75.096;2024-03-23T09:38:32;-5.70;99.90
15107;DHT22;7654;45.308;-75.096;2024-03-23T09:41:07;-5.70;99.90
15107;DHT22;7654;45.308;-75.096;2024-03-23T09:43:35;-5.70;99.90
15107;DHT22;7654;45.308;-75.096;2024-03-23T09:46:04;-5.70;99.90
15107;DHT22;7654;45.308;-75.096;2024-03-23T09:48:32;-5.70;99.90
15107;DHT22;7654;45.308;-75.096;2024-03-23T09:51:03;-5.70;99.90
15107;DHT22;7654;45.308;-75.096;2024-03-23T09:53:31;-5.70;99.90
15107;DHT22;7654;45.308;-75.096;2024-03-23T09:56:00;-5.60;99.90
15107;DHT22;7654;45.308;-75.096;2024-03-23T09:58:29;-5.70;99.90
15107;DHT22;7654;45.308;-75.096;2024-03-23T10:00:58;-5.70;99.90
15107;DHT22;7654;45.308;-75.096;2024-03-23T10:03:26;-5.70;99.90
15107;DHT22;7654;45.308;-75.096;2024-03-23T10:06:02;-5.70;99.90
15107;DHT22;7654;45.308;-75.096;2024-03-23T10:08:29;-5.70;99.90
15107;DHT22;7654;45.308;-75.096;2024-03-23T10:11:13;-5.70;99.90
15107;DHT22;7654;45.308;-75.096;2024-03-23T10:13:44;-5.70;99.90
15107;DHT22;7654;45.308;-75.096;2024-03-23T10:16:21;-5.70;99.90
15107;DHT22;7654;45.308;-75.096;2024-03-23T10:18:49;-5.70;99.90
15107;DHT22;7654;45.308;-75.096;2024-03-23T10:21:18;-5.80;99.90
15107;DHT22;7654;45.308;-75.096;2024-03-23T10:23:46;-5.80;99.90
15107;DHT22;7654;45.308;-75.096;2024-03-23T10:26:20;-5.80;99.90
15107;DHT22;7654;45.308;-75.096;2024-03-23T10:28:55;-5.80;99.90
15107;DHT22;7654;45.308;-75.096;2024-03-23T10:31:28;-5.80;99.90
15107;DHT22;7654;45.308;-75.096;2024-03-23T10:33:55;-5.80;99.90
15107;DHT22;7654;45.308;-75.096;2024-03-23T10:36:25;-5.80;99.90
15107;DHT22;7654;45.308;-75.096;2024-03-23T10:38:54;-5.80;99.90
15107;DHT22;7654;45.308;-75.096;2024-03-23T10:41:24;-5.80;99.90
15107;DHT22;7654;45.308;-75.096;2024-03-23T10:43:56;-5.80;99.90
15107;DHT22;7654;45.308;-75.096;2024-03-23T10:46:26;-5.80;99.90
15107;DHT22;7654;45.308;-75.096;2024-03-23T10:48:54;-5.80;99.90
15107;DHT22;7654;45.308;-75.096;2024-03-23T10:51:23;-5.80;99.90
15107;DHT22;7654;45.308;-75.096;2024-03-23T10:53:52;-5.80;99.90
15107;DHT22;7654;45.308;-75.096;2024-03-23T10:56:22;-5.80;99.90
15107;DHT22;7654;45.308;-75.096;2024-03-23T10:58:50;-5.80;99.90
15107;DHT22;7654;45.308;-75.096;2024-03-23T11:01:21;-5.80;99.90
15107;DHT22;7654;45.308;-75.096;2024-03-23T11:03:49;-5.80;99.90
15107;DHT22;7654;45.308;-75.096;2024-03-23T11:06:35;-5.80;99.90
15107;DHT22;7654;45.308;-75.096;2024-03-23T11:09:03;-5.80;99.90
15107;DHT22;7654;45.308;-75.096;2024-03-23T11:11:32;-5.70;99.90
15107;DHT22;7654;45.308;-75.096;2024-03-23T11:14:01;-5.80;99.90
15107;DHT22;7654;45.308;-75.096;2024-03-23T11:16:43;-5.80;99.90
15107;DHT22;7654;45.308;-75.096;2024-03-23T11:19:43;-5.80;99.90
15107;DHT22;7654;45.308;-75.096;2024-03-23T11:22:12;-5.70;99.90
15107;DHT22;7654;45.308;-75.096;2024-03-23T11:24:40;-5.80;99.90
15107;DHT22;7654;45.308;-75.096;2024-03-23T11:27:16;-5.70;99.90
15107;DHT22;7654;45.308;-75.096;2024-03-23T11:29:44;-5.70;99.90
15107;DHT22;7654;45.308;-75.096;2024-03-23T11:32:14;-5.70;99.90
15107;DHT22;7654;45.308;-75.096;2024-03-23T11:34:42;-5.70;99.90
15107;DHT22;7654;45.308;-75.096;2024-03-23T11:37:10;-5.80;99.90
15107;DHT22;7654;45.308;-75.096;2024-03-23T11:39:38;-5.80;99.90
15107;DHT22;7654;45.308;-75.096;2024-03-23T11:42:07;-5.70;99.90
15107;DHT22;7654;45.308;-75.096;2024-03-23T11:44:34;-5.80;99.90
15107;DHT22;7654;45.308;-75.096;2024-03-23T11:47:08;-5.80;99.90
15107;DHT22;7654;45.308;-75.096;2024-03-23T11:49:37;-5.70;99.90
15107;DHT22;7654;45.308;-75.096;2024-03-23T11:52:07;-5.80;99.90
15107;DHT22;7654;45.308;-75.096;2024-03-23T11:54:35;-5.70;99.90
15107;DHT22;7654;45.308;-75.096;2024-03-23T11:57:08;-5.70;99.90
15107;DHT22;7654;45.308;-75.096;2024-03-23T11:59:37;-5.70;99.90
15107;DHT22;7654;45.308;-75.096;2024-03-23T12:02:07;-5.70;99.90
15107;DHT22;7654;45.308;-75.096;2024-03-23T12:04:37;-5.60;99.90
15107;DHT22;7654;45.308;-75.096;2024-03-23T12:07:11;-5.60;99.90
15107;DHT22;7654;45.308;-75.096;2024-03-23T12:09:39;-5.50;99.90
15107;DHT22;7654;45.308;-75.096;2024-03-23T12:12:10;-5.50;99.90
15107;DHT22;7654;45.308;-75.096;2024-03-23T12:14:38;-5.50;99.90
15107;DHT22;7654;45.308;-75.096;2024-03-23T12:17:12;-5.40;99.90
15107;DHT22;7654;45.308;-75.096;2024-03-23T12:19:42;-5.40;99.90
15107;DHT22;7654;45.308;-75.096;2024-03-23T12:22:11;-5.40;99.90
15107;DHT22;7654;45.308;-75.096;2024-03-23T12:24:39;-5.30;99.90
15107;DHT22;7654;45.308;-75.096;2024-03-23T12:27:12;-5.30;99.90
15107;DHT22;7654;45.308;-75.096;2024-03-23T12:29:39;-5.30;99.90
15107;DHT22;7654;45.308;-75.096;2024-03-23T12:32:08;-5.30;99.90
15107;DHT22;7654;45.308;-75.096;2024-03-23T12:34:36;-5.20;99.90
15107;DHT22;7654;45.308;-75.096;2024-03-23T12:37:06;-5.10;99.90
15107;DHT22;7654;45.308;-75.096;2024-03-23T12:39:34;-5.10;99.90
15107;DHT22;7654;45.308;-75.096;2024-03-23T12:42:04;-5.10;99.90
15107;DHT22;7654;45.308;-75.096;2024-03-23T12:44:31;-5.10;99.90
15107;DHT22;7654;45.308;-75.096;2024-03-23T12:47:01;-5.10;99.90
15107;DHT22;7654;45.308;-75.096;2024-03-23T12:49:29;-5.00;99.90
15107;DHT22;7654;45.308;-75.096;2024-03-23T12:51:57;-4.90;99.90
15107;DHT22;7654;45.308;-75.096;2024-03-23T12:54:27;-4.80;99.90
15107;DHT22;7654;45.308;-75.096;2024-03-23T12:56:57;-4.80;99.90
15107;DHT22;7654;45.308;-75.096;2024-03-23T12:59:25;-4.80;99.90
15107;DHT22;7654;45.308;-75.096;2024-03-23T13:01:54;-4.90;99.90
15107;DHT22;7654;45.308;-75.096;2024-03-23T13:04:22;-4.80;99.90
15107;DHT22;7654;45.308;-75.096;2024-03-23T13:06:51;-4.80;99.90
15107;DHT22;7654;45.308;-75.096;2024-03-23T13:09:18;-4.80;99.90
15107;DHT22;7654;45.308;-75.096;2024-03-23T13:11:49;-4.80;99.90
15107;DHT22;7654;45.308;-75.096;2024-03-23T13:14:16;-4.80;99.90
15107;DHT22;7654;45.308;-75.096;2024-03-23T13:16:45;-4.50;99.90
15107;DHT22;7654;45.308;-75.096;2024-03-23T13:19:13;-4.40;99.90
15107;DHT22;7654;45.308;-75.096;2024-03-23T13:21:42;-4.40;99.90
15107;DHT22;7654;45.308;-75.096;2024-03-23T13:24:10;-4.50;99.90
15107;DHT22;7654;45.308;-75.096;2024-03-23T13:26:38;-4.60;99.90
15107;DHT22;7654;45.308;-75.096;2024-03-23T13:29:09;-4.40;99.90
15107;DHT22;7654;45.308;-75.096;2024-03-23T13:31:37;-4.30;99.90
15107;DHT22;7654;45.308;-75.096;2024-03-23T13:34:05;-4.10;99.90
15107;DHT22;7654;45.308;-75.096;2024-03-23T13:36:33;-4.30;99.90
15107;DHT22;7654;45.308;-75.096;2024-03-23T13:39:02;-4.20;99.90
15107;DHT22;7654;45.308;-75.096;2024-03-23T13:41:33;-4.20;99.90
15107;DHT22;7654;45.308;-75.096;2024-03-23T13:44:02;-4.10;99.90
15107;DHT22;7654;45.308;-75.096;2024-03-23T13:46:32;-4.30;99.90
15107;DHT22;7654;45.308;-75.096;2024-03-23T13:49:00;-4.30;99.90
15107;DHT22;7654;45.308;-75.096;2024-03-23T13:51:29;-4.20;99.90
15107;DHT22;7654;45.308;-75.096;2024-03-23T13:53:57;-4.20;99.90
15107;DHT22;7654;45.308;-75.096;2024-03-23T13:56:27;-4.30;99.90
15107;DHT22;7654;45.308;-75.096;2024-03-23T13:58:55;-4.10;99.90
15107;DHT22;7654;45.308;-75.096;2024-03-23T14:01:25;-4.00;99.90
15107;DHT22;7654;45.308;-75.096;2024-03-23T14:03:54;-3.80;99.90
15107;DHT22;7654;45.308;-75.096;2024-03-23T14:06:24;-3.70;99.90
15107;DHT22;7654;45.308;-75.096;2024-03-23T14:08:52;-3.70;99.90
15107;DHT22;7654;45.308;-75.096;2024-03-23T14:11:20;-3.60;99.90
15107;DHT22;7654;45.308;-75.096;2024-03-23T14:13:48;-3.50;99.90
15107;DHT22;7654;45.308;-75.096;2024-03-23T14:16:17;-3.40;99.90
15107;DHT22;7654;45.308;-75.096;2024-03-23T14:18:47;-3.50;99.90
15107;DHT22;7654;45.308;-75.096;2024-03-23T14:21:17;-3.50;99.90
15107;DHT22;7654;45.308;-75.096;2024-03-23T14:23:45;-3.40;99.90
15107;DHT22;7654;45.308;-75.096;2024-03-23T14:26:14;-3.50;99.90
15107;DHT22;7654;45.308;-75.096;2024-03-23T14:28:42;-3.50;99.90
15107;DHT22;7654;45.308;-75.096;2024-03-23T14:31:10;-3.30;99.90
15107;DHT22;7654;45.308;-75.096;2024-03-23T14:33:38;-3.50;99.90
15107;DHT22;7654;45.308;-75.096;2024-03-23T14:36:13;-3.40;99.90
15107;DHT22;7654;45.308;-75.096;2024-03-23T14:38:42;-3.30;99.90
15107;DHT22;7654;45.308;-75.096;2024-03-23T14:41:11;-3.10;99.90
15107;DHT22;7654;45.308;-75.096;2024-03-23T14:43:38;-3.00;99.90
15107;DHT22;7654;45.308;-75.096;2024-03-23T14:46:09;-3.00;99.90
15107;DHT22;7654;45.308;-75.096;2024-03-23T14:48:37;-3.10;99.90
15107;DHT22;7654;45.308;-75.096;2024-03-23T14:51:06;-3.00;99.90
15107;DHT22;7654;45.308;-75.096;2024-03-23T14:53:36;-3.10;99.90
15107;DHT22;7654;45.308;-75.096;2024-03-23T14:56:08;-3.10;99.90
15107;DHT22;7654;45.308;-75.096;2024-03-23T14:58:37;-3.00;99.90
15107;DHT22;7654;45.308;-75.096;2024-03-23T15:01:06;-3.20;99.90
15107;DHT22;7654;45.308;-75.096;2024-03-23T15:03:36;-3.30;99.90
15107;DHT22;7654;45.308;-75.096;2024-03-23T15:06:06;-3.20;99.90
15107;DHT22;7654;45.308;-75.096;2024-03-23T15:08:36;-3.30;99.90
15107;DHT22;7654;45.308;-75.096;2024-03-23T15:11:05;-3.50;99.90
15107;DHT22;7654;45.308;-75.096;2024-03-23T15:13:34;-3.40;99.90
15107;DHT22;7654;45.308;-75.096;2024-03-23T15:16:04;-3.60;99.90
15107;DHT22;7654;45.308;-75.096;2024-03-23T15:18:32;-3.70;99.90
15107;DHT22;7654;45.308;-75.096;2024-03-23T15:21:03;-3.70;99.90
15107;DHT22;7654;45.308;-75.096;2024-03-23T15:23:33;-3.90;99.90
15107;DHT22;7654;45.308;-75.096;2024-03-23T15:26:02;-3.80;99.90
15107;DHT22;7654;45.308;-75.096;2024-03-23T15:28:30;-3.90;99.90
15107;DHT22;7654;45.308;-75.096;2024-03-23T15:31:10;-3.70;99.90
15107;DHT22;7654;45.308;-75.096;2024-03-23T15:33:37;-3.60;99.90
15107;DHT22;7654;45.308;-75.096;2024-03-23T15:36:07;-3.60;99.90
15107;DHT22;7654;45.308;-75.096;2024-03-23T15:38:35;-3.90;99.90
15107;DHT22;7654;45.308;-75.096;2024-03-23T15:41:05;-3.60;99.90
15107;DHT22;7654;45.308;-75.096;2024-03-23T15:43:33;-3.60;99.90
15107;DHT22;7654;45.308;-75.096;2024-03-23T15:46:03;-3.60;99.90
15107;DHT22;7654;45.308;-75.096;2024-03-23T15:48:33;-3.70;99.90
15107;DHT22;7654;45.308;-75.096;2024-03-23T15:51:02;-3.60;99.90
15107;DHT22;7654;45.308;-75.096;2024-03-23T15:53:31;-3.50;99.90
15107;DHT22;7654;45.308;-75.096;2024-03-23T15:56:01;-3.60;99.90
15107;DHT22;7654;45.308;-75.096;2024-03-23T15:58:29;-3.60;99.90
15107;DHT22;7654;45.308;-75.096;2024-03-23T16:01:00;-3.50;99.90
15107;DHT22;7654;45.308;-75.096;2024-03-23T16:03:28;-3.20;99.90
15107;DHT22;7654;45.308;-75.096;2024-03-23T16:05:59;-3.20;99.90
15107;DHT22;7654;45.308;-75.096;2024-03-23T16:08:27;-3.10;99.90
15107;DHT22;7654;45.308;-75.096;2024-03-23T16:11:00;-3.20;99.90
15107;DHT22;7654;45.308;-75.096;2024-03-23T16:13:28;-3.10;99.90
15107;DHT22;7654;45.308;-75.096;2024-03-23T16:15:58;-3.20;99.90
15107;DHT22;7654;45.308;-75.096;2024-03-23T16:18:26;-3.00;99.90
15107;DHT22;7654;45.308;-75.096;2024-03-23T16:20:55;-2.80;99.90